Time;durP1;ratioP1;P1;durP2;ratioP2;P2;SDS_P1;SDS_P2;PMS_P1;PMS_P2;Temp;Humidity;BMP_temperature;BMP_pressure;BME280_temperature;BME280_humidity;BME280_pressure;Samples;Min_cycle;Max_cycle;Signal;HPM_P1;HPM_P2
2021/11/28 00:00:34;;;;;;;9.20;8.40;;;;;;;4.01;82.15;96636.38;5037357;27;103214;-66
2021/11/28 00:03:03;;;;;;;8.70;7.90;;;;;;;4.02;82.79;96630.22;5020331;27;102619;-66
2021/11/28 00:05:34;;;;;;;8.75;7.95;;;;;;;4.03;82.64;96629.28;5022588;27;104232;-64
2021/11/28 00:08:14;;;;;;;9.63;8.70;;;;;;;3.90;82.84;96625.13;5040298;27;103227;-66
2021/11/28 00:16:12;;;;;;;8.47;7.70;;;;;;;3.74;84.09;96640.31;5015660;27;102881;-66
2021/11/28 00:18:40;;;;;;;11.20;10.10;;;;;;;3.41;84.42;96633.28;5041379;27;103211;-66
2021/11/28 00:21:09;;;;;;;8.67;7.87;;;;;;;3.65;85.74;96634.03;5039823;27;103239;-66
2021/11/28 00:23:38;;;;;;;7.10;6.50;;;;;;;3.85;85.12;96629.88;5040304;27;102800;-66
2021/11/28 00:26:06;;;;;;;8.82;8.05;;;;;;;3.92;83.47;96634.50;5041775;27;102579;-66
2021/11/28 00:28:35;;;;;;;7.47;6.78;;;;;;;3.85;84.56;96633.31;5038572;27;103223;-66
2021/11/28 00:31:03;;;;;;;11.40;10.30;;;;;;;3.04;87.20;96634.41;5019298;27;103367;-66
2021/11/28 00:33:31;;;;;;;10.50;9.43;;;;;;;2.78;88.22;96634.56;5021909;27;102687;-65
2021/11/28 00:35:59;;;;;;;10.02;9.02;;;;;;;3.04;87.04;96634.41;5040647;27;102878;-65
2021/11/28 00:38:29;;;;;;;9.82;8.93;;;;;;;2.60;90.46;96630.69;5038069;27;103289;-67
2021/11/28 00:40:57;;;;;;;9.40;8.57;;;;;;;3.15;88.43;96631.81;5038894;27;103231;-65
2021/11/28 00:43:25;;;;;;;9.13;8.32;;;;;;;3.33;86.72;96631.28;5041415;27;103015;-66
2021/11/28 00:45:53;;;;;;;8.57;7.77;;;;;;;3.45;85.44;96634.75;5039375;27;102797;-65
2021/11/28 00:48:24;;;;;;;7.22;6.63;;;;;;;3.71;85.85;96632.72;5041853;27;103284;-66
2021/11/28 00:51:01;;;;;;;8.52;7.72;;;;;;;3.72;85.12;96627.38;5017861;27;104302;-66
2021/11/28 00:53:30;;;;;;;9.43;8.45;;;;;;;3.44;85.17;96622.63;5039992;27;102729;-66
2021/11/28 00:55:58;;;;;;;9.57;8.57;;;;;;;3.22;85.92;96625.19;5022389;27;102971;-66
2021/11/28 00:58:27;;;;;;;8.75;7.95;;;;;;;3.51;86.10;96623.81;5040651;27;103968;-66
2021/11/28 01:00:55;;;;;;;9.02;8.18;;;;;;;3.50;84.91;96622.16;5038642;27;103290;-65
2021/11/28 01:03:24;;;;;;;7.97;7.28;;;;;;;3.61;86.09;96637.84;5022575;27;102889;-66
2021/11/28 01:05:53;;;;;;;8.13;7.43;;;;;;;3.75;84.67;96637.59;5019569;27;102751;-66
2021/11/28 01:08:22;;;;;;;11.52;10.48;;;;;;;2.66;88.03;96632.88;5040609;27;103264;-66
2021/11/28 01:10:51;;;;;;;10.35;9.45;;;;;;;2.52;89.46;96638.25;5021774;27;103279;-66
2021/11/28 01:13:20;;;;;;;13.70;12.48;;;;;;;2.13;92.78;96638.50;5041131;27;102997;-64
2021/11/28 01:15:48;;;;;;;14.20;12.90;;;;;;;2.47;90.77;96635.13;5022186;27;102716;-64
2021/11/28 01:18:16;;;;;;;12.05;10.90;;;;;;;2.19;90.53;96643.28;5021203;27;103270;-64
2021/11/28 01:20:44;;;;;;;11.93;10.82;;;;;;;1.73;94.09;96649.09;5019699;27;103219;-66
2021/11/28 01:23:13;;;;;;;10.13;9.23;;;;;;;2.58;91.38;96650.84;5019602;27;103098;-66
2021/11/28 01:25:42;;;;;;;11.40;10.25;;;;;;;2.29;91.02;96655.53;5021396;27;103589;-66
2021/11/28 01:28:11;;;;;;;7.57;6.88;;;;;;;2.89;90.01;96662.47;5022185;27;103409;-66
2021/11/28 01:30:39;;;;;;;10.53;9.60;;;;;;;2.78;88.25;96654.56;5044328;27;103198;-64
2021/11/28 01:33:07;;;;;;;10.27;9.20;;;;;;;2.60;89.67;96661.97;5020345;27;102838;-64
2021/11/28 01:35:36;;;;;;;7.90;7.20;;;;;;;3.11;89.08;96661.72;5026401;27;104016;-64
2021/11/28 01:38:05;;;;;;;8.23;7.53;;;;;;;3.32;87.56;96662.69;5026653;27;102909;-64
2021/11/28 01:40:34;;;;;;;11.23;10.13;;;;;;;2.66;88.32;96664.16;5043502;27;103238;-64
2021/11/28 01:43:04;;;;;;;11.77;10.77;;;;;;;1.96;93.20;96670.09;5022561;27;103347;-64
2021/11/28 01:45:35;;;;;;;11.93;10.73;;;;;;;2.23;91.71;96671.59;5024875;27;102929;-66
2021/11/28 01:48:06;;;;;;;11.32;10.15;;;;;;;1.87;93.49;96671.56;5026881;27;103976;-66
2021/11/28 01:50:36;;;;;;;9.95;9.05;;;;;;;2.35;92.33;96675.09;5024933;27;105219;-66
2021/11/28 01:53:08;;;;;;;11.57;10.47;;;;;;;1.88;92.93;96686.25;5024870;27;102887;-66
2021/11/28 01:55:37;;;;;;;12.45;11.35;;;;;;;1.77;93.59;96687.00;5024858;27;103056;-66
2021/11/28 01:58:11;;;;;;;10.93;9.93;;;;;;;1.94;95.70;96683.22;5024840;27;104664;-66
2021/11/28 02:00:47;;;;;;;11.65;10.57;;;;;;;1.88;93.93;96685.44;5022970;27;103224;-66
2021/11/28 02:03:17;;;;;;;12.68;11.50;;;;;;;1.63;94.75;96674.09;5032580;27;102720;-66
2021/11/28 02:05:51;;;;;;;12.17;10.97;;;;;;;1.62;96.37;96676.81;5024689;27;102727;-66
2021/11/28 02:08:20;;;;;;;11.63;10.60;;;;;;;2.02;92.86;96680.09;5020200;27;104198;-66
2021/11/28 02:10:48;;;;;;;10.13;9.23;;;;;;;2.11;93.37;96675.06;5035881;27;103520;-66
2021/11/28 02:13:19;;;;;;;12.57;11.30;;;;;;;1.65;95.03;96682.66;5043613;27;102850;-66
2021/11/28 02:15:49;;;;;;;10.70;9.67;;;;;;;1.99;95.09;96677.72;5025232;27;104045;-66
2021/11/28 02:18:21;;;;;;;11.32;10.15;;;;;;;1.68;94.33;96677.19;5021148;27;105113;-66
2021/11/28 02:20:53;;;;;;;11.00;9.93;;;;;;;1.68;95.53;96682.41;5022886;27;103708;-66
2021/11/28 02:23:22;;;;;;;11.93;10.73;;;;;;;1.58;96.44;96686.59;5019936;27;102827;-66
2021/11/28 02:25:55;;;;;;;11.93;10.73;;;;;;;1.35;97.02;96684.69;5025274;27;102963;-66
2021/11/28 02:28:24;;;;;;;10.80;9.80;;;;;;;1.66;94.83;96681.69;5025174;27;103446;-66
2021/11/28 02:30:52;;;;;;;12.10;10.90;;;;;;;1.30;97.67;96676.38;5023867;27;103356;-66
2021/11/28 02:33:22;;;;;;;12.18;11.07;;;;;;;1.51;96.57;96672.34;5019367;27;103034;-66
2021/11/28 02:35:53;;;;;;;9.32;8.43;;;;;;;2.04;94.86;96665.19;5022603;27;102793;-66
2021/11/28 02:38:23;;;;;;;10.00;9.10;;;;;;;2.14;92.39;96674.84;5022737;27;103303;-66
2021/11/28 02:40:52;;;;;;;9.90;9.00;;;;;;;2.09;94.43;96670.91;5024694;27;103486;-66
2021/11/28 02:43:25;;;;;;;7.20;6.60;;;;;;;2.62;91.98;96667.91;5022464;27;103076;-66
2021/11/28 02:45:53;;;;;;;9.25;8.43;;;;;;;2.67;90.21;96664.97;5019215;27;102830;-66
2021/11/28 02:48:22;;;;;;;8.40;7.68;;;;;;;2.82;90.62;96669.91;5022644;27;103288;-66
2021/11/28 02:50:50;;;;;;;9.50;8.60;;;;;;;2.65;88.76;96665.09;5024217;27;103804;-66
2021/11/28 02:53:22;;;;;;;7.57;6.87;;;;;;;2.88;90.48;96666.00;5022719;27;102777;-66
2021/11/28 02:55:54;;;;;;;8.70;7.80;;;;;;;3.03;89.03;96666.66;5044192;27;102648;-67
2021/11/28 02:58:23;;;;;;;6.53;5.93;;;;;;;3.27;88.50;96672.66;5017547;27;104419;-66
2021/11/28 03:00:55;;;;;;;10.02;9.10;;;;;;;2.42;89.91;96668.50;5018405;27;105556;-66
2021/11/28 03:03:24;;;;;;;9.43;8.60;;;;;;;2.67;89.99;96667.56;5020651;27;102739;-66
2021/11/28 03:05:54;;;;;;;10.15;9.15;;;;;;;2.50;91.05;96665.38;5022877;27;102780;-66
2021/11/28 03:08:23;;;;;;;7.68;6.97;;;;;;;2.82;91.22;96656.88;5018793;27;104173;-66
2021/11/28 03:10:52;;;;;;;8.60;7.80;;;;;;;2.85;88.85;96661.84;5017818;27;104377;-66
2021/11/28 03:13:22;;;;;;;9.68;8.77;;;;;;;2.41;90.05;96659.03;5037082;27;102844;-67
2021/11/28 03:15:53;;;;;;;8.80;7.97;;;;;;;2.62;91.70;96657.47;5039140;27;102663;-64
2021/11/28 03:18:24;;;;;;;7.50;6.80;;;;;;;2.95;90.06;96658.56;5038911;27;103360;-64
2021/11/28 03:20:57;;;;;;;8.70;7.97;;;;;;;3.19;88.15;96649.75;5022372;27;103220;-63
2021/11/28 03:23:30;;;;;;;7.27;6.63;;;;;;;3.34;88.37;96658.22;5022277;27;102890;-64
2021/11/28 03:26:06;;;;;;;6.57;5.97;;;;;;;3.55;87.29;96655.72;5041973;27;102778;-64
2021/11/28 03:28:36;;;;;;;8.10;7.40;;;;;;;3.48;85.52;96650.16;5042303;27;103460;-64
2021/11/28 03:31:05;;;;;;;7.40;6.80;;;;;;;3.48;87.13;96655.41;5024571;27;104492;-64
2021/11/28 03:33:59;;;;;;;7.70;7.00;;;;;;;3.17;88.60;96656.03;5038398;27;102978;-64
2021/11/28 03:36:34;;;;;;;9.05;8.15;;;;;;;3.15;87.54;96652.69;5021913;27;102761;-64
2021/11/28 03:39:06;;;;;;;9.43;8.52;;;;;;;2.89;87.61;96647.63;5039855;27;103463;-64
2021/11/28 03:41:34;;;;;;;8.07;7.38;;;;;;;2.88;87.90;96638.16;5019589;27;103473;-64
2021/11/28 03:44:05;;;;;;;8.15;7.35;;;;;;;2.90;89.19;96644.09;5018126;27;102652;-64
2021/11/28 03:46:48;;;;;;;6.73;6.17;;;;;;;3.27;87.85;96641.34;5038205;27;102748;-64
2021/11/28 03:49:17;;;;;;;8.90;8.05;;;;;;;2.81;87.19;96634.31;5017736;27;105169;-64
2021/11/28 03:51:45;;;;;;;8.10;7.40;;;;;;;2.60;90.57;96640.28;5023269;27;103042;-64
2021/11/28 03:54:15;;;;;;;8.88;7.97;;;;;;;2.49;90.89;96637.63;5023648;27;103260;-64
2021/11/28 03:56:42;;;;;;;9.48;8.57;;;;;;;2.00;92.10;96632.47;5023989;27;102650;-64
2021/11/28 03:59:12;;;;;;;8.85;7.97;;;;;;;2.06;93.57;96637.25;5020354;27;103051;-66
2021/11/28 04:01:42;;;;;;;9.80;8.80;;;;;;;2.05;92.47;96644.22;5023353;27;103469;-66
2021/11/28 04:04:10;;;;;;;10.07;9.07;;;;;;;2.00;94.08;96642.88;5024247;27;102890;-66
2021/11/28 04:06:57;;;;;;;8.43;7.70;;;;;;;2.07;93.80;96647.56;5039212;27;103009;-66
2021/11/28 04:09:27;;;;;;;7.28;6.60;;;;;;;2.67;91.89;96647.53;5021605;27;104441;-66
2021/11/28 04:11:56;;;;;;;7.85;7.05;;;;;;;2.97;89.69;96648.84;5022690;27;105265;-66
2021/11/28 04:14:24;;;;;;;6.68;6.07;;;;;;;3.27;88.52;96651.78;5022463;27;102708;-66
2021/11/28 04:16:53;;;;;;;5.38;4.88;;;;;;;3.42;87.75;96645.41;5022145;27;102962;-66
2021/11/28 04:19:20;;;;;;;9.57;8.65;;;;;;;2.56;88.54;96650.09;5022800;27;105071;-66
2021/11/28 04:21:50;;;;;;;6.63;6.03;;;;;;;3.10;89.28;96654.81;5017919;27;103200;-66
2021/11/28 04:24:18;;;;;;;6.85;6.25;;;;;;;3.19;88.32;96649.75;5022891;27;102539;-66
2021/11/28 04:26:48;;;;;;;8.50;7.80;;;;;;;2.73;88.87;96647.09;5021869;27;102971;-67
2021/11/28 04:29:17;;;;;;;6.65;6.05;;;;;;;3.01;89.67;96650.28;5040776;27;103988;-66
2021/11/28 04:31:48;;;;;;;6.47;5.88;;;;;;;3.34;87.91;96647.78;5023130;27;103226;-66
2021/11/28 04:34:17;;;;;;;6.30;5.70;;;;;;;3.53;86.54;96641.97;5019126;27;102732;-67
2021/11/28 04:36:46;;;;;;;6.60;6.00;;;;;;;3.58;86.27;96640.69;5018030;27;102971;-66
2021/11/28 04:39:15;;;;;;;7.10;6.40;;;;;;;3.43;85.97;96636.63;5039820;27;104428;-66
2021/11/28 04:41:44;;;;;;;7.05;6.45;;;;;;;3.31;87.81;96632.34;5020322;27;103237;-66
2021/11/28 04:44:13;;;;;;;5.95;5.35;;;;;;;3.59;87.57;96638.91;5022579;27;102780;-66
2021/11/28 04:46:41;;;;;;;8.77;7.93;;;;;;;2.67;88.46;96637.13;5017455;27;102661;-66
2021/11/28 04:49:10;;;;;;;8.20;7.40;;;;;;;2.87;89.58;96644.31;5021614;27;103069;-66
2021/11/28 04:51:38;;;;;;;9.57;7.80;;;;;;;2.33;92.50;96643.94;5022144;27;103411;-66
2021/11/28 04:54:08;;;;;;;7.87;7.07;;;;;;;2.65;91.11;96633.78;5041756;27;102854;-66
2021/11/28 04:56:37;;;;;;;8.82;8.00;;;;;;;2.15;92.57;96639.22;5033277;27;102568;-66
2021/11/28 04:59:05;;;;;;;8.17;7.37;;;;;;;2.52;90.98;96634.81;5037435;27;103292;-66
2021/11/28 05:01:41;;;;;;;8.02;7.22;;;;;;;2.56;91.09;96639.66;5021546;27;102940;-66
2021/11/28 05:04:28;;;;;;;8.10;7.28;;;;;;;2.28;93.04;96643.44;5021454;27;102707;-66
2021/11/28 05:07:16;;;;;;;8.90;8.00;;;;;;;2.33;91.07;96643.09;5044199;27;102705;-66
2021/11/28 05:09:54;;;;;;;6.10;5.50;;;;;;;2.81;91.87;96638.69;5017753;27;104025;-66
2021/11/28 05:12:23;;;;;;;6.88;6.20;;;;;;;3.16;90.15;96636.94;5020896;27;103290;-66
2021/11/28 05:14:53;;;;;;;5.00;4.60;;;;;;;3.42;89.08;96634.97;5023939;27;102883;-66
2021/11/28 05:17:23;;;;;;;7.50;6.63;;;;;;;3.14;87.71;96641.44;5022689;27;102840;-66
2021/11/28 05:19:55;;;;;;;5.83;5.33;;;;;;;3.31;88.86;96634.97;5023416;27;104038;-66
2021/11/28 05:22:44;;;;;;;6.35;5.75;;;;;;;3.37;87.67;96632.69;5021598;27;103257;-66
2021/11/28 05:25:12;;;;;;;5.53;5.03;;;;;;;3.57;87.35;96632.94;5038414;27;102568;-66
2021/11/28 05:27:42;;;;;;;5.93;5.43;;;;;;;3.66;86.75;96633.09;5024616;27;103838;-66
2021/11/28 05:30:10;;;;;;;5.25;4.85;;;;;;;3.76;86.04;96641.84;5019793;27;103298;-66
2021/11/28 05:33:15;;;;;;;4.75;4.35;;;;;;;3.85;85.99;96638.53;5041078;27;103425;-64
2021/11/28 05:36:16;;;;;;;6.03;5.50;;;;;;;3.74;85.25;96637.69;5041377;27;102849;-66
2021/11/28 05:38:54;;;;;;;5.05;4.63;;;;;;;3.85;85.50;96638.53;5024506;27;102732;-64
2021/11/28 05:41:22;;;;;;;6.37;5.83;;;;;;;3.86;84.61;96632.38;5022675;27;105184;-64
2021/11/28 05:43:51;;;;;;;5.75;5.25;;;;;;;3.85;85.35;96635.09;5023386;27;103212;-64
2021/11/28 05:46:19;;;;;;;6.05;5.55;;;;;;;3.86;85.11;96635.00;5039802;27;102681;-64
2021/11/28 05:49:14;;;;;;;5.20;4.70;;;;;;;3.96;85.74;96651.59;5028684;27;102828;-64
2021/11/28 05:52:02;;;;;;;5.18;4.78;;;;;;;3.98;84.69;96644.50;5043592;27;104007;-64
2021/11/28 05:54:30;;;;;;;4.90;4.50;;;;;;;4.04;84.46;96649.22;5026055;27;105267;-64
2021/11/28 05:57:00;;;;;;;6.43;5.93;;;;;;;3.93;83.78;96651.81;5017983;27;103088;-64
2021/11/28 05:59:28;;;;;;;7.75;7.05;;;;;;;3.41;85.79;96651.56;5025020;27;104816;-64
2021/11/28 06:01:57;;;;;;;7.60;6.90;;;;;;;3.30;86.67;96656.78;5021953;27;103951;-64
2021/11/28 06:04:28;;;;;;;7.80;6.93;;;;;;;3.18;87.84;96660.28;5039786;27;103380;-64
2021/11/28 06:07:16;;;;;;;6.78;6.10;;;;;;;3.49;87.55;96654.44;5043048;27;102843;-64
2021/11/28 06:09:45;;;;;;;6.03;5.30;;;;;;;3.72;86.09;96663.94;5019522;27;104195;-64
2021/11/28 06:12:19;;;;;;;5.20;4.80;;;;;;;3.77;85.70;96660.97;5025065;27;102876;-64
2021/11/28 06:14:47;;;;;;;5.47;4.97;;;;;;;3.84;84.97;96663.00;5025752;27;103243;-64
2021/11/28 06:17:19;;;;;;;7.78;7.07;;;;;;;3.33;85.98;96669.59;5022723;27;102971;-64
2021/11/28 06:20:09;;;;;;;7.93;7.13;;;;;;;2.78;89.27;96680.66;5043940;27;102651;-64
2021/11/28 06:22:54;;;;;;;8.40;7.60;;;;;;;2.56;91.06;96678.78;5020107;27;105051;-64
2021/11/28 06:25:24;;;;;;;8.40;7.60;;;;;;;2.61;91.15;96676.66;5023468;27;103207;-64
2021/11/28 06:28:12;;;;;;;8.38;7.57;;;;;;;2.59;91.42;96669.91;5043826;27;102622;-66
2021/11/28 06:30:42;;;;;;;7.95;7.25;;;;;;;2.82;90.25;96675.13;5024494;27;102797;-66
2021/11/28 06:33:16;;;;;;;9.20;8.30;;;;;;;2.41;90.92;96679.88;5038333;27;103274;-66
2021/11/28 06:36:00;;;;;;;9.07;8.27;;;;;;;2.22;92.55;96674.28;5041968;27;103225;-64
2021/11/28 06:38:49;;;;;;;7.20;6.60;;;;;;;2.95;91.26;96672.44;5039434;27;102648;-66
2021/11/28 06:41:36;;;;;;;7.57;6.87;;;;;;;2.89;89.11;96672.91;5043654;27;102750;-64
2021/11/28 06:44:05;;;;;;;7.57;6.78;;;;;;;2.86;87.90;96684.38;5021805;27;103691;-66
2021/11/28 06:46:35;;;;;;;9.07;8.18;;;;;;;2.18;92.01;96680.69;5021738;27;105587;-66
2021/11/28 06:49:05;;;;;;;8.18;7.47;;;;;;;2.15;93.73;96680.88;5021285;27;103192;-66
2021/11/28 06:51:35;;;;;;;9.50;8.60;;;;;;;2.13;93.23;96688.00;5042597;27;102725;-66
2021/11/28 06:54:19;;;;;;;9.82;8.93;;;;;;;1.93;93.48;96693.75;5019894;27;103437;-66
2021/11/28 06:56:52;;;;;;;9.43;8.50;;;;;;;2.27;92.52;96680.84;5020900;27;103397;-66
2021/11/28 06:59:21;;;;;;;9.40;8.55;;;;;;;2.27;92.85;96683.44;5041548;27;102922;-64
2021/11/28 07:01:50;;;;;;;8.13;7.43;;;;;;;2.50;92.75;96687.03;5024969;27;102808;-64
2021/11/28 07:04:37;;;;;;;8.43;7.73;;;;;;;2.77;91.07;96689.44;5038747;27;103198;-64
2021/11/28 07:07:18;;;;;;;10.35;9.38;;;;;;;2.14;92.34;96689.63;5042360;27;103848;-64
2021/11/28 07:09:54;;;;;;;11.05;10.00;;;;;;;2.03;93.85;96693.00;5021319;27;102705;-64
2021/11/28 07:12:23;;;;;;;10.55;9.55;;;;;;;1.69;96.94;96691.06;5022506;27;102744;-66
2021/11/28 07:14:51;;;;;;;10.53;9.53;;;;;;;1.50;98.59;96694.09;5017402;27;104964;-64
2021/11/28 07:17:23;;;;;;;10.40;9.40;;;;;;;1.94;96.45;96708.44;5020311;27;103484;-64
2021/11/28 07:19:55;;;;;;;8.65;7.95;;;;;;;2.38;94.88;96708.78;5022737;27;102679;-64
2021/11/28 07:22:43;;;;;;;8.70;7.85;;;;;;;2.23;94.51;96708.06;5040338;27;103799;-64
2021/11/28 07:25:11;;;;;;;8.53;7.73;;;;;;;2.55;93.23;96707.56;5023232;27;103224;-64
2021/11/28 07:27:44;;;;;;;7.47;6.78;;;;;;;2.87;91.51;96709.50;5025040;27;103420;-65
2021/11/28 07:30:12;;;;;;;8.30;7.50;;;;;;;2.72;91.32;96700.19;5025400;27;102724;-64
2021/11/28 07:32:42;;;;;;;8.43;7.63;;;;;;;2.75;90.24;96707.78;5022129;27;104011;-64
2021/11/28 07:35:42;;;;;;;8.00;7.22;;;;;;;3.01;91.26;96698.06;5032057;27;104094;-64
2021/11/28 07:38:22;;;;;;;7.63;6.80;;;;;;;3.18;90.25;96700.25;5013629;27;103572;-64
2021/11/28 07:40:52;;;;;;;8.80;8.00;;;;;;;3.07;88.69;96700.22;5020728;27;102839;-64
2021/11/28 07:43:40;;;;;;;8.13;7.32;;;;;;;2.74;91.35;96705.31;5021400;27;102705;-65
2021/11/28 07:46:27;;;;;;;9.55;8.65;;;;;;;2.47;93.08;96697.66;5040094;27;103932;-64
2021/11/28 07:49:05;;;;;;;7.97;7.28;;;;;;;2.97;92.20;96701.84;5022979;27;103640;-64
2021/11/28 07:51:33;;;;;;;6.78;6.18;;;;;;;3.24;90.54;96707.63;5037507;27;102880;-67
2021/11/28 07:54:03;;;;;;;8.45;7.55;;;;;;;3.22;89.39;96706.09;5040711;27;102681;-67
2021/11/28 07:56:32;;;;;;;8.60;7.43;;;;;;;3.19;89.45;96706.31;5021156;27;103881;-67
2021/11/28 07:59:38;;;;;;;7.70;7.00;;;;;;;3.30;89.42;96708.97;5007534;28;103207;-67
2021/11/28 08:02:14;;;;;;;7.00;6.30;;;;;;;3.30;90.35;96709.81;4999343;28;102652;-66
2021/11/28 08:04:43;;;;;;;8.43;7.63;;;;;;;2.98;88.88;96707.88;5022214;27;102864;-66
2021/11/28 08:07:29;;;;;;;8.02;7.22;;;;;;;3.34;89.08;96713.03;5039193;27;103158;-66
2021/11/28 08:10:02;;;;;;;7.72;6.93;;;;;;;3.39;88.85;96708.28;5040528;27;102765;-66
2021/11/28 08:12:30;;;;;;;7.68;6.90;;;;;;;3.46;88.33;96712.09;5039647;27;102958;-66
2021/11/28 08:14:58;;;;;;;6.50;5.85;;;;;;;3.77;88.11;96711.44;5039976;27;102654;-65
2021/11/28 08:17:26;;;;;;;7.47;6.78;;;;;;;3.49;87.24;96710.09;5040339;27;103353;-66
2021/11/28 08:19:54;;;;;;;9.30;7.20;;;;;;;3.42;88.55;96711.47;5020067;27;103375;-66
2021/11/28 08:22:22;;;;;;;6.73;6.03;;;;;;;3.66;88.10;96716.66;5037658;27;102816;-66
2021/11/28 08:24:50;;;;;;;7.90;7.15;;;;;;;3.75;87.87;96715.94;5041757;27;103024;-66
2021/11/28 08:27:19;;;;;;;7.43;6.82;;;;;;;3.84;86.47;96710.03;5038682;27;104009;-66
2021/11/28 08:29:47;;;;;;;6.50;5.90;;;;;;;4.13;86.54;96706.97;5016049;27;103585;-66
2021/11/28 08:32:43;;;;;;;6.93;6.22;;;;;;;4.19;86.13;96714.28;5023960;27;102937;-66
2021/11/28 08:35:30;;;;;;;6.65;6.05;;;;;;;4.20;85.54;96718.59;5038145;27;102613;-66
2021/11/28 08:37:58;;;;;;;7.30;6.60;;;;;;;4.31;85.07;96726.41;5016789;27;104201;-66
2021/11/28 08:40:27;;;;;;;7.55;6.85;;;;;;;4.11;84.22;96717.50;5028699;27;103188;-66
2021/11/28 08:42:56;;;;;;;7.03;6.32;;;;;;;4.37;84.07;96725.94;5031689;27;102795;-66
2021/11/28 08:45:25;;;;;;;6.43;5.82;;;;;;;4.63;83.32;96727.34;5036757;27;103777;-65
2021/11/28 08:47:53;;;;;;;7.10;6.40;;;;;;;4.61;82.28;96731.84;5038385;27;103299;-65
2021/11/28 08:50:21;;;;;;;7.25;6.55;;;;;;;4.46;82.38;96733.06;5036856;27;103466;-65
2021/11/28 08:52:49;;;;;;;7.20;6.50;;;;;;;4.50;83.35;96740.53;5024331;27;102664;-65
2021/11/28 08:55:19;;;;;;;7.07;6.37;;;;;;;4.60;83.17;96740.66;5031622;27;102795;-65
2021/11/28 08:57:48;;;;;;;7.15;6.45;;;;;;;4.72;82.87;96744.06;5021454;27;103260;-65
2021/11/28 09:00:18;;;;;;;6.22;5.63;;;;;;;4.91;82.97;96755.56;5020777;27;103223;-65
2021/11/28 09:02:49;;;;;;;7.45;6.70;;;;;;;4.94;81.74;96754.50;5012278;27;102862;-65
2021/11/28 09:05:19;;;;;;;7.93;6.75;;;;;;;4.95;81.78;96751.75;5023315;27;103190;-65
2021/11/28 09:07:49;;;;;;;7.65;6.95;;;;;;;5.01;81.23;96756.50;5024301;27;103433;-65
2021/11/28 09:10:18;;;;;;;6.43;5.75;;;;;;;5.07;81.52;96757.78;5021127;27;104663;-65
2021/11/28 09:12:47;;;;;;;6.20;5.60;;;;;;;5.19;81.27;96765.47;5025816;27;102796;-65
2021/11/28 09:15:17;;;;;;;6.87;6.27;;;;;;;5.22;80.54;96765.22;5009352;27;102884;-63
2021/11/28 09:17:49;;;;;;;6.03;5.53;;;;;;;5.30;80.48;96762.00;5021076;27;103272;-65
2021/11/28 09:20:21;;;;;;;6.50;5.90;;;;;;;5.32;79.90;96761.88;5031158;27;103061;-66
2021/11/28 09:25:38;;;;;;;6.60;5.90;;;;;;;5.25;81.40;96754.50;5025121;27;103003;-66
2021/11/28 09:28:12;;;;;;;6.65;5.97;;;;;;;5.46;80.86;96756.31;5021657;27;103275;-66
2021/11/28 09:30:42;;;;;;;6.45;5.85;;;;;;;5.56;80.75;96757.22;5023025;27;103486;-67
2021/11/28 09:33:10;;;;;;;6.53;5.93;;;;;;;5.63;80.87;96758.38;5031415;27;102557;-66
2021/11/28 09:35:38;;;;;;;6.80;6.20;;;;;;;5.45;80.36;96759.88;5030440;27;102750;-66
2021/11/28 09:38:07;;;;;;;9.02;7.50;;;;;;;5.12;78.76;96758.25;5022696;27;103303;-65
2021/11/28 09:40:35;;;;;;;7.38;6.68;;;;;;;5.08;79.22;96756.84;5023169;27;103427;-66
2021/11/28 09:43:05;;;;;;;7.30;6.60;;;;;;;5.15;79.93;96764.06;5021601;27;102995;-66
2021/11/28 09:45:33;;;;;;;7.82;7.03;;;;;;;4.62;82.89;96765.75;5023472;27;103190;-66
2021/11/28 09:48:05;;;;;;;8.75;6.95;;;;;;;4.61;83.27;96753.59;5011138;27;103153;-66
2021/11/28 09:50:33;;;;;;;6.53;5.93;;;;;;;4.69;82.42;96755.59;5027145;27;104748;-66
2021/11/28 09:53:04;;;;;;;7.63;6.93;;;;;;;4.40;85.18;96755.31;5029878;27;102874;-66
2021/11/28 09:55:35;;;;;;;8.05;7.25;;;;;;;4.27;85.59;96759.78;5031722;27;104005;-66
2021/11/28 09:58:03;;;;;;;8.80;7.70;;;;;;;4.08;85.63;96749.94;5027827;27;103251;-66
2021/11/28 10:00:31;;;;;;;8.37;7.57;;;;;;;4.24;84.54;96751.38;5005635;27;103185;-66
2021/11/28 10:03:00;;;;;;;8.35;7.20;;;;;;;4.37;85.78;96747.69;5025109;27;102981;-66
2021/11/28 10:05:29;;;;;;;8.98;8.15;;;;;;;4.37;84.21;96745.06;5027034;27;103051;-66
2021/11/28 10:07:59;;;;;;;7.90;7.20;;;;;;;4.67;83.92;96739.22;5026119;27;103329;-66
2021/11/28 10:10:28;;;;;;;8.75;7.95;;;;;;;4.41;83.58;96740.41;5028789;27;103510;-66
2021/11/28 10:12:56;;;;;;;9.03;8.13;;;;;;;4.48;84.04;96734.63;5031592;27;102845;-66
2021/11/28 10:15:27;;;;;;;7.05;6.45;;;;;;;4.83;83.44;96737.03;5024470;27;103438;-66
2021/11/28 10:17:56;;;;;;;7.67;6.87;;;;;;;5.09;83.31;96735.78;5039835;27;103289;-66
2021/11/28 10:20:31;;;;;;;8.88;7.88;;;;;;;4.49;83.71;96732.84;5021965;27;103268;-66
2021/11/28 10:22:59;;;;;;;7.30;6.60;;;;;;;4.62;84.41;96738.75;5041151;27;102809;-66
2021/11/28 10:25:29;;;;;;;7.82;7.10;;;;;;;4.97;83.71;96734.13;5023918;27;102761;-66
2021/11/28 10:28:01;;;;;;;9.60;8.43;;;;;;;4.46;83.50;96735.69;5040692;27;103473;-66
2021/11/28 10:30:35;;;;;;;7.30;6.60;;;;;;;4.93;83.76;96731.91;5037567;27;103227;-65
2021/11/28 10:33:09;;;;;;;7.00;6.40;;;;;;;5.32;83.13;96728.66;5040609;27;102713;-66
2021/11/28 10:35:40;;;;;;;7.70;6.53;;;;;;;5.50;82.98;96719.28;5040690;27;102888;-66
2021/11/28 10:38:14;;;;;;;6.82;6.20;;;;;;;5.70;81.63;96718.44;5041597;27;103009;-66
2021/11/28 10:40:46;;;;;;;8.82;7.20;;;;;;;5.63;79.96;96722.56;5025737;27;103231;-65
2021/11/28 10:43:16;;;;;;;8.57;7.68;;;;;;;5.07;81.02;96719.38;5039893;27;102636;-66
2021/11/28 10:45:49;;;;;;;8.00;7.20;;;;;;;4.59;83.44;96718.06;5022397;27;102735;-66
2021/11/28 10:48:23;;;;;;;7.13;6.43;;;;;;;4.90;81.67;96722.50;5038972;27;103239;-66
2021/11/28 10:50:55;;;;;;;6.65;6.05;;;;;;;5.11;81.85;96725.16;5040506;27;103467;-66
2021/11/28 10:53:24;;;;;;;6.30;5.70;;;;;;;5.41;81.53;96721.84;5042996;27;102787;-66
2021/11/28 10:55:54;;;;;;;6.95;6.30;;;;;;;5.55;81.10;96724.97;5021737;27;103190;-67
2021/11/28 10:58:25;;;;;;;7.03;6.43;;;;;;;5.60;80.05;96719.34;5021987;27;104169;-67
2021/11/28 11:01:05;;;;;;;7.22;6.53;;;;;;;5.50;79.76;96719.28;5041452;27;103187;-66
2021/11/28 11:03:36;;;;;;;8.52;7.72;;;;;;;5.00;81.68;96723.41;5022105;27;102692;-66
2021/11/28 11:06:17;;;;;;;6.20;5.68;;;;;;;5.53;82.28;96716.41;5018901;27;104013;-67
2021/11/28 11:08:46;;;;;;;8.98;6.13;;;;;;;5.54;81.25;96725.94;5033002;27;103220;-67
2021/11/28 11:11:17;;;;;;;5.60;5.00;;;;;;;5.65;80.95;96723.25;5033651;27;103208;-67
2021/11/28 11:14:00;;;;;;;5.83;5.23;;;;;;;5.47;79.52;96721.34;5032693;27;102677;-67
2021/11/28 11:16:33;;;;;;;5.75;5.18;;;;;;;5.22;80.23;96725.16;5014375;27;102705;-67
2021/11/28 11:19:28;;;;;;;5.73;5.23;;;;;;;5.22;80.23;96727.78;5030663;27;102816;-67
2021/11/28 11:22:06;;;;;;;7.50;6.75;;;;;;;4.95;80.68;96724.75;5024626;27;103261;-67
2021/11/28 11:24:37;;;;;;;6.40;5.80;;;;;;;4.73;82.68;96730.03;5010620;27;102716;-67
2021/11/28 11:27:07;;;;;;;5.28;4.78;;;;;;;4.91;82.89;96729.38;5024438;27;103942;-65
2021/11/28 11:29:36;;;;;;;6.13;5.22;;;;;;;5.07;81.22;96722.00;5020604;27;103215;-65
2021/11/28 11:32:09;;;;;;;8.13;6.70;;;;;;;4.53;83.10;96723.78;5021894;27;103471;-65
2021/11/28 11:34:38;;;;;;;8.90;7.13;;;;;;;4.45;84.80;96720.94;5021075;27;103041;-65
2021/11/28 11:37:12;;;;;;;22.08;20.00;;;;;;;4.38;85.14;96720.56;5002155;27;103053;-65
2021/11/28 11:39:43;;;;;;;13.07;11.80;;;;;;;4.88;84.09;96729.66;5029870;27;103517;-65
2021/11/28 11:42:12;;;;;;;6.00;5.50;;;;;;;4.75;85.09;96728.13;5024895;27;103189;-67
2021/11/28 11:44:43;;;;;;;6.43;5.63;;;;;;;4.74;83.61;96716.03;5003733;27;102718;-66
2021/11/28 11:47:17;;;;;;;8.10;6.60;;;;;;;4.73;84.71;96720.41;5029155;27;102730;-65
2021/11/28 11:49:45;;;;;;;7.05;6.35;;;;;;;4.33;85.86;96712.28;5022821;27;103269;-65
2021/11/28 11:52:17;;;;;;;5.97;5.47;;;;;;;4.79;86.00;96721.72;5026194;27;103203;-65
2021/11/28 11:54:47;;;;;;;5.80;5.18;;;;;;;4.98;84.96;96720.09;5024808;27;102666;-65
2021/11/28 11:57:20;;;;;;;5.10;4.70;;;;;;;5.36;83.61;96716.16;5028721;27;102873;-65
2021/11/28 12:00:10;;;;;;;6.72;6.03;;;;;;;5.50;82.86;96721.09;5039451;27;103271;-65
2021/11/28 12:02:43;;;;;;;8.30;7.40;;;;;;;5.37;81.47;96720.41;5006430;27;103320;-65